createdAt,value
2022-08-19T00:02:00.563Z,96332.53
2022-08-19T00:04:37.147Z,96336.13
2022-08-19T00:07:07.427Z,96347.22
2022-08-19T00:09:35.905Z,96351.56
2022-08-19T00:12:05.044Z,96355.09
2022-08-19T00:14:33.674Z,96367.03
2022-08-19T00:17:04.023Z,96372.94
2022-08-19T00:19:34.244Z,96378.50
2022-08-19T00:22:03.397Z,96381.25
2022-08-19T00:24:31.673Z,96381.25
2022-08-19T00:27:26.098Z,96378.88
2022-08-19T00:29:52.510Z,96378.88
2022-08-19T00:32:22.983Z,96365.81
2022-08-19T00:34:54.332Z,96378.47
2022-08-19T00:37:24.712Z,96373.75
2022-08-19T00:39:53.179Z,96383.66
2022-08-19T00:42:24.113Z,96389.19
2022-08-19T00:44:53.001Z,96393.97
2022-08-19T00:47:21.257Z,96395.94
2022-08-19T00:49:57.720Z,96391.97
2022-08-19T00:52:31.421Z,96395.94
2022-08-19T00:55:01.499Z,96395.94
2022-08-19T00:57:36.479Z,96383.25
2022-08-19T01:00:13.798Z,96382.47
2022-08-19T01:02:43.982Z,96391.16
2022-08-19T01:05:19.438Z,96393.94
2022-08-19T01:07:49.022Z,96395.94
2022-08-19T01:10:24.276Z,96395.50
2022-08-19T01:12:56.076Z,96397.09
2022-08-19T01:15:31.352Z,96393.16
2022-08-19T01:18:06.543Z,96404.63
2022-08-19T01:20:36.307Z,96400.25
2022-08-19T01:23:06.418Z,96398.66
2022-08-19T01:25:44.417Z,96401.44
2022-08-19T01:28:40.001Z,96404.22
2022-08-19T01:31:26.520Z,96414.53
2022-08-19T01:33:58.903Z,96413.75
2022-08-19T01:36:31.917Z,96412.16
2022-08-19T01:39:02.374Z,96418.09
2022-08-19T01:41:30.710Z,96424.81
2022-08-19T01:44:09.761Z,96424.44
2022-08-19T01:46:48.202Z,96427.59
2022-08-19T01:49:19.201Z,96433.56
2022-08-19T01:51:47.897Z,96443.88
2022-08-19T01:54:23.300Z,96441.09
2022-08-19T01:57:02.622Z,96447.81
2022-08-19T01:59:33.622Z,96443.84
2022-08-19T02:02:02.129Z,96441.88
2022-08-19T02:04:30.421Z,96441.47
2022-08-19T02:07:00.213Z,96443.03
2022-08-19T02:09:30.033Z,96447.03
2022-08-19T02:11:58.349Z,96439.09
2022-08-19T02:14:26.576Z,96441.47
2022-08-19T02:16:54.895Z,96445.44
2022-08-19T02:19:23.397Z,96459.69
2022-08-19T02:21:52.040Z,96468.38
2022-08-19T02:24:20.246Z,96479.84
2022-08-19T02:26:49.900Z,96474.75
2022-08-19T02:29:18.137Z,96464.44
2022-08-19T02:31:46.453Z,96459.31
2022-08-19T02:34:14.930Z,96446.25
2022-08-19T02:36:43.192Z,96444.25
2022-08-19T02:39:10.627Z,96444.25
2022-08-19T02:41:38.852Z,96452.19
2022-08-19T02:44:29.362Z,96451.34
2022-08-19T02:46:56.811Z,96430.38
2022-08-19T02:49:25.192Z,96422.84
2022-08-19T02:51:53.425Z,96409.41
2022-08-19T02:54:21.699Z,96403.88
2022-08-19T02:56:50.900Z,96408.22
2022-08-19T02:59:22.946Z,96411.78
2022-08-19T03:01:51.586Z,96413.34
2022-08-19T03:04:21.237Z,96411.38
2022-08-19T03:06:51.053Z,96414.53
2022-08-19T03:09:21.769Z,96416.84
2022-08-19T03:11:52.704Z,96410.16
2022-08-19T03:14:22.636Z,96411.34
2022-08-19T03:16:54.076Z,96416.81
2022-08-19T03:19:23.307Z,96422.41
2022-08-19T03:21:52.193Z,96420.00
2022-08-19T03:24:21.804Z,96431.84
2022-08-19T03:26:53.471Z,96432.22
2022-08-19T03:29:30.945Z,96428.72
2022-08-19T03:32:01.553Z,96439.81
2022-08-19T03:34:33.550Z,96434.25
2022-08-19T03:37:07.502Z,96441.78
2022-08-19T03:39:37.955Z,96430.34
2022-08-19T03:42:32.880Z,96426.41
2022-08-19T03:44:56.546Z,96425.16
2022-08-19T03:47:24.795Z,96427.50
2022-08-19T03:49:53.078Z,96427.53
2022-08-19T03:52:21.291Z,96423.16
2022-08-19T03:54:49.555Z,96426.00
2022-08-19T03:57:17.810Z,96433.50
2022-08-19T03:59:46.056Z,96436.66
2022-08-19T04:02:16.186Z,96431.16
2022-08-19T04:04:46.133Z,96432.72
2022-08-19T04:07:17.324Z,96435.09
2022-08-19T04:09:46.099Z,96435.88
2022-08-19T04:12:14.377Z,96441.03
2022-08-19T04:14:42.761Z,96446.56
2022-08-19T04:17:11.041Z,96444.22
2022-08-19T04:19:41.002Z,96440.63
2022-08-19T04:22:09.442Z,96431.97
2022-08-19T04:24:38.114Z,96446.59
2022-08-19T04:27:07.811Z,96461.63
2022-08-19T04:29:36.209Z,96465.59
2022-08-19T04:32:08.556Z,96463.66
2022-08-19T04:35:02.343Z,96472.34
2022-08-19T04:37:35.766Z,96468.41
2022-08-19T04:40:25.941Z,96470.75
2022-08-19T04:42:54.528Z,96474.72
2022-08-19T04:45:23.379Z,96475.13
2022-08-19T04:47:58.190Z,96477.91
2022-08-19T04:50:44.373Z,96475.91
2022-08-19T04:53:14.037Z,96479.88
2022-08-19T04:55:43.504Z,96481.47
2022-08-19T04:58:11.757Z,96489.78
2022-08-19T05:00:41.793Z,96498.50
2022-08-19T05:03:10.357Z,96504.03
2022-08-19T05:05:44.974Z,96493.34
2022-08-19T05:08:30.616Z,96493.75
2022-08-19T05:11:00.100Z,96503.28
2022-08-19T05:13:28.841Z,96496.13
2022-08-19T05:15:59.851Z,96500.91
2022-08-19T05:18:46.247Z,96501.28
2022-08-19T05:21:37.145Z,96513.56
2022-08-19T05:24:09.831Z,96509.22
2022-08-19T05:26:38.501Z,96501.31
2022-08-19T05:29:09.421Z,96506.03
2022-08-19T05:31:41.917Z,96498.91
2022-08-19T05:34:18.431Z,96508.41
2022-08-19T05:36:49.612Z,96514.00
2022-08-19T05:39:22.980Z,96512.78
2022-08-19T05:41:55.177Z,96509.63
2022-08-19T05:44:23.678Z,96507.25
2022-08-19T05:46:53.842Z,96504.09
2022-08-19T05:49:25.823Z,96504.47
2022-08-19T05:51:55.923Z,96494.16
2022-08-19T05:54:26.310Z,96497.75
2022-08-19T05:56:56.023Z,96498.13
2022-08-19T05:59:24.970Z,96501.69
2022-08-19T06:01:57.965Z,96498.50
2022-08-19T06:04:26.996Z,96487.41
2022-08-19T06:06:57.337Z,96485.06
2022-08-19T06:09:27.454Z,96486.66
2022-08-19T06:12:00.642Z,96486.66
2022-08-19T06:14:35.512Z,96486.25
2022-08-19T06:17:08.687Z,96492.19
2022-08-19T06:19:40.564Z,96483.50
2022-08-19T06:22:12.857Z,96487.44
2022-08-19T06:24:42.469Z,96481.88
2022-08-19T06:27:11.163Z,96481.88
2022-08-19T06:29:40.332Z,96478.31
2022-08-19T06:32:09.010Z,96483.47
2022-08-19T06:34:37.348Z,96484.25
2022-08-19T06:37:06.732Z,96487.03
2022-08-19T06:39:40.277Z,96492.56
2022-08-19T06:42:12.719Z,96501.31
2022-08-19T06:44:48.958Z,96509.25
2022-08-19T06:47:23.464Z,96516.00
2022-08-19T06:50:03.984Z,96507.63
2022-08-19T06:52:38.352Z,96515.59
2022-08-19T06:55:08.524Z,96517.56
2022-08-19T06:57:38.103Z,96517.56
2022-08-19T07:00:12.913Z,96521.53
2022-08-19T07:02:44.715Z,96518.38
2022-08-19T07:05:16.970Z,96514.81
2022-08-19T07:07:45.218Z,96506.84
2022-08-19T07:10:16.304Z,96521.94
2022-08-19T07:12:48.490Z,96510.41
2022-08-19T07:15:17.214Z,96505.66
2022-08-19T07:17:52.762Z,96500.91
2022-08-19T07:20:21.630Z,96504.06
2022-08-19T07:22:56.779Z,96498.13
2022-08-19T07:25:32.128Z,96502.50
2022-08-19T07:28:02.802Z,96496.97
2022-08-19T07:30:31.596Z,96508.47
2022-08-19T07:33:00.040Z,96508.06
2022-08-19T07:35:33.150Z,96502.91
2022-08-19T07:38:03.652Z,96506.47
2022-08-19T07:40:32.977Z,96505.28
2022-08-19T07:43:02.674Z,96512.41
2022-08-19T07:45:32.777Z,96510.44
2022-08-19T07:48:02.044Z,96517.16
2022-08-19T07:50:30.649Z,96525.91
2022-08-19T07:52:58.920Z,96522.31
2022-08-19T07:55:40.403Z,96520.75
2022-08-19T07:58:15.350Z,96512.41
2022-08-19T08:00:45.553Z,96518.34
2022-08-19T08:03:15.157Z,96513.59
2022-08-19T08:06:00.674Z,96520.72
2022-08-19T08:08:48.081Z,96507.63
2022-08-19T08:11:21.079Z,96502.44
2022-08-19T08:14:00.892Z,96497.63
2022-08-19T08:16:35.645Z,96501.53
2022-08-19T08:19:14.379Z,96490.41
2022-08-19T08:21:49.807Z,96499.50
2022-08-19T08:24:18.999Z,96494.41
2022-08-19T08:26:52.197Z,96505.94
2022-08-19T08:29:27.187Z,96504.72
2022-08-19T08:32:04.518Z,96498.38
2022-08-19T08:34:43.374Z,96503.97
2022-08-19T08:37:11.672Z,96498.78
2022-08-19T08:39:40.049Z,96494.03
2022-08-19T08:42:19.297Z,96485.22
2022-08-19T08:45:01.984Z,96489.53
2022-08-19T08:47:41.897Z,96485.09
2022-08-19T08:50:17.883Z,96483.88
2022-08-19T08:52:54.069Z,96486.66
2022-08-19T08:55:28.509Z,96484.69
2022-08-19T08:58:14.883Z,96484.19
2022-08-19T09:00:49.465Z,96485.75
2022-08-19T09:03:23.208Z,96490.13
2022-08-19T09:06:01.941Z,96498.31
2022-08-19T09:08:45.222Z,96497.00
2022-08-19T09:11:42.634Z,96499.56
2022-08-19T09:14:49.449Z,96502.50
2022-08-19T09:17:16.505Z,96493.47
2022-08-19T09:19:57.401Z,96502.56
2022-08-19T09:22:27.750Z,96500.63
2022-08-19T09:24:57.799Z,96503.94
2022-08-19T09:27:41.792Z,96500.00
2022-08-19T09:30:22.690Z,96498.41
2022-08-19T09:32:54.088Z,96498.50
2022-08-19T09:35:24.694Z,96508.00
2022-08-19T09:37:57.408Z,96501.91
2022-08-19T09:40:30.020Z,96507.78
2022-08-19T09:43:03.467Z,96506.28
2022-08-19T09:45:38.468Z,96506.56
2022-08-19T09:48:09.411Z,96506.53
2022-08-19T09:50:39.460Z,96502.97
2022-08-19T09:53:20.533Z,96504.31
2022-08-19T09:55:48.829Z,96508.00
2022-08-19T09:58:17.160Z,96523.53
2022-08-19T10:00:46.690Z,96512.81
2022-08-19T10:03:21.348Z,96512.09
2022-08-19T10:05:54.545Z,96505.41
2022-08-19T10:08:28.645Z,96506.16
2022-08-19T10:10:58.902Z,96513.72
2022-08-19T10:13:31.483Z,96513.31
2022-08-19T10:16:07.861Z,96512.97
2022-08-19T10:18:38.242Z,96510.56
2022-08-19T10:21:16.388Z,96507.75
2022-08-19T10:23:48.079Z,96511.41
2022-08-19T10:26:21.777Z,96518.13
2022-08-19T10:28:50.881Z,96510.63
2022-08-19T10:32:00.664Z,96505.13
2022-08-19T10:34:27.672Z,96517.47
2022-08-19T10:37:01.070Z,96506.06
2022-08-19T10:39:31.641Z,96521.13
2022-08-19T10:42:01.608Z,96503.28
2022-08-19T10:44:32.304Z,96510.41
2022-08-19T10:47:01.958Z,96502.50
2022-08-19T10:49:33.176Z,96505.66
2022-08-19T10:52:20.205Z,96504.88
2022-08-19T10:55:08.264Z,96510.03
2022-08-19T10:57:59.471Z,96506.47
2022-08-19T11:00:27.352Z,96507.25
2022-08-19T11:02:56.730Z,96499.31
2022-08-19T11:05:26.404Z,96503.28
2022-08-19T11:07:54.779Z,96508.06
2022-08-19T11:10:24.451Z,96506.09
2022-08-19T11:12:55.137Z,96508.47
2022-08-19T11:15:24.261Z,96503.28
2022-08-19T11:17:55.249Z,96496.94
2022-08-19T11:20:25.909Z,96488.63
2022-08-19T11:22:55.361Z,96489.00
2022-08-19T11:25:23.742Z,96489.81
2022-08-19T11:27:53.258Z,96484.66
2022-08-19T11:30:22.170Z,96485.84
2022-08-19T11:32:50.567Z,96490.63
2022-08-19T11:35:21.090Z,96494.56
2022-08-19T11:37:50.796Z,96490.63
2022-08-19T11:40:19.407Z,96496.53
2022-08-19T11:42:57.245Z,96504.03
2022-08-19T11:45:26.062Z,96491.75
2022-08-19T11:47:54.850Z,96493.72
2022-08-19T11:50:24.340Z,96490.56
2022-08-19T11:52:57.166Z,96493.34
2022-08-19T11:55:25.853Z,96490.59
2022-08-19T11:57:54.312Z,96489.78
2022-08-19T12:00:23.107Z,96487.81
2022-08-19T12:02:51.340Z,96493.75
2022-08-19T12:05:19.752Z,96499.69
2022-08-19T12:07:48.342Z,96494.56
2022-08-19T12:10:19.444Z,96496.91
2022-08-19T12:12:58.753Z,96494.16
2022-08-19T12:15:28.817Z,96496.13
2022-08-19T12:18:06.687Z,96491.00
2022-08-19T12:20:38.205Z,96492.97
2022-08-19T12:23:07.759Z,96485.84
2022-08-19T12:25:38.681Z,96500.13
2022-08-19T12:28:06.943Z,96489.03
2022-08-19T12:30:35.239Z,96495.38
2022-08-19T12:33:03.481Z,96501.72
2022-08-19T12:35:31.847Z,96502.50
2022-08-19T12:38:00.933Z,96508.81
2022-08-19T12:40:29.489Z,96515.16
2022-08-19T12:42:59.075Z,96515.94
2022-08-19T12:45:28.259Z,96511.59
2022-08-19T12:47:56.593Z,96505.25
2022-08-19T12:50:24.975Z,96511.97
2022-08-19T12:52:53.601Z,96520.69
2022-08-19T12:55:22.014Z,96521.09
2022-08-19T12:57:51.593Z,96531.41
2022-08-19T13:00:23.951Z,96527.84
2022-08-19T13:02:54.393Z,96521.09
2022-08-19T13:05:26.902Z,96518.72
2022-08-19T13:07:57.979Z,96524.28
2022-08-19T13:10:35.816Z,96532.59
2022-08-19T13:13:07.330Z,96531.00
2022-08-19T13:15:40.574Z,96534.94
2022-08-19T13:18:11.520Z,96532.16
2022-08-19T13:20:42.104Z,96531.00
2022-08-19T13:23:20.675Z,96537.72
2022-08-19T13:25:59.355Z,96534.56
2022-08-19T13:28:47.772Z,96529.41
2022-08-19T13:31:37.454Z,96525.81
2022-08-19T13:34:06.636Z,96522.25
2022-08-19T13:36:35.196Z,96522.66
2022-08-19T13:39:04.096Z,96519.88
2022-08-19T13:41:32.609Z,96535.69
2022-08-19T13:44:00.960Z,96525.38
2022-08-19T13:46:30.601Z,96534.91
2022-08-19T13:48:59.164Z,96533.31
2022-08-19T13:51:27.798Z,96526.94
2022-08-19T13:53:56.308Z,96535.69
2022-08-19T13:56:26.465Z,96531.72
2022-08-19T13:58:55.367Z,96535.25
2022-08-19T14:01:28.490Z,96531.31
2022-08-19T14:03:58.385Z,96534.88
2022-08-19T14:06:26.615Z,96535.25
2022-08-19T14:08:54.859Z,96528.13
2022-08-19T14:11:23.835Z,96534.06
2022-08-19T14:13:52.732Z,96527.72
2022-08-19T14:16:22.558Z,96529.34
2022-08-19T14:18:50.785Z,96532.09
2022-08-19T14:21:25.253Z,96532.09
2022-08-19T14:23:54.673Z,96529.31
2022-08-19T14:26:24.889Z,96531.31
2022-08-19T14:28:53.776Z,96524.19
2022-08-19T14:31:27.827Z,96522.19
2022-08-19T14:33:59.195Z,96521.41
2022-08-19T14:36:28.921Z,96507.94
2022-08-19T14:38:58.570Z,96504.00
2022-08-19T14:41:27.924Z,96508.34
2022-08-19T14:43:56.861Z,96511.53
2022-08-19T14:46:29.465Z,96509.94
2022-08-19T14:48:59.969Z,96513.50
2022-08-19T14:51:29.888Z,96513.91
2022-08-19T14:53:58.790Z,96516.69
2022-08-19T14:56:31.268Z,96517.47
2022-08-19T14:59:02.001Z,96518.69
2022-08-19T15:01:30.540Z,96517.91
2022-08-19T15:03:58.821Z,96513.91
2022-08-19T15:06:30.574Z,96517.91
2022-08-19T15:09:03.857Z,96504.03
2022-08-19T15:11:33.774Z,96513.56
2022-08-19T15:14:02.753Z,96520.28
2022-08-19T15:16:31.244Z,96523.03
2022-08-19T15:19:01.700Z,96523.84
2022-08-19T15:21:32.541Z,96520.69
2022-08-19T15:24:02.608Z,96534.94
2022-08-19T15:26:33.481Z,96535.34
2022-08-19T15:29:02.577Z,96527.03
2022-08-19T15:31:35.062Z,96526.66
2022-08-19T15:34:06.818Z,96529.00
2022-08-19T15:36:37.115Z,96527.06
2022-08-19T15:39:07.276Z,96531.38
2022-08-19T15:41:36.999Z,96526.22
2022-08-19T15:44:10.528Z,96537.31
2022-08-19T15:46:42.400Z,96540.09
2022-08-19T15:49:12.977Z,96540.50
2022-08-19T15:51:46.403Z,96538.09
2022-08-19T15:54:21.596Z,96531.75
2022-08-19T15:57:08.686Z,96527.81
2022-08-19T15:59:59.966Z,96533.34
2022-08-19T16:02:53.442Z,96534.94
2022-08-19T16:05:45.091Z,96528.22
2022-08-19T16:08:15.540Z,96534.97
2022-08-19T16:10:43.818Z,96534.56
2022-08-19T16:13:12.028Z,96536.94
2022-08-19T16:15:44.665Z,96534.16
2022-08-19T16:18:12.931Z,96529.00
2022-08-19T16:20:41.160Z,96533.75
2022-08-19T16:23:10.124Z,96534.94
2022-08-19T16:25:39.741Z,96546.44
2022-08-19T16:28:09.815Z,96538.88
2022-08-19T16:30:40.855Z,96544.44
2022-08-19T16:33:10.606Z,96540.84
2022-08-19T16:35:39.736Z,96545.59
2022-08-19T16:38:08.037Z,96547.56
2022-08-19T16:40:37.136Z,96563.78
2022-08-19T16:43:08.399Z,96566.56
2022-08-19T16:45:36.745Z,96566.16
2022-08-19T16:48:06.032Z,96571.31
2022-08-19T16:50:48.780Z,96567.34
2022-08-19T16:53:20.650Z,96565.72
2022-08-19T16:55:54.019Z,96553.03
2022-08-19T16:58:29.594Z,96562.56
2022-08-19T17:01:03.440Z,96560.91
2022-08-19T17:03:36.601Z,96549.75
2022-08-19T17:06:20.551Z,96554.09
2022-08-19T17:08:51.206Z,96564.72
2022-08-19T17:11:21.160Z,96567.88
2022-08-19T17:13:52.752Z,96560.66
2022-08-19T17:16:24.833Z,96564.56
2022-08-19T17:18:53.702Z,96559.34
2022-08-19T17:21:25.461Z,96568.63
2022-08-19T17:23:55.238Z,96584.56
2022-08-19T17:26:25.334Z,96596.31
2022-08-19T17:28:57.677Z,96591.38
2022-08-19T17:31:29.312Z,96600.50
2022-08-19T17:33:58.866Z,96609.63
2022-08-19T17:36:30.511Z,96609.19
2022-08-19T17:39:02.169Z,96606.44
2022-08-19T17:41:32.047Z,96603.09
2022-08-19T17:44:02.664Z,96602.28
2022-08-19T17:46:31.650Z,96606.78
2022-08-19T17:49:00.123Z,96615.66
2022-08-19T17:51:44.923Z,96619.16
2022-08-19T17:54:16.652Z,96617.94
2022-08-19T17:56:48.119Z,96629.00
2022-08-19T17:59:46.528Z,96629.28
2022-08-19T18:02:28.418Z,96624.19
2022-08-19T18:04:59.098Z,96639.22
2022-08-19T18:07:28.601Z,96641.59
2022-08-19T18:09:58.970Z,96641.19
2022-08-19T18:12:31.484Z,96643.50
2022-08-19T18:15:07.589Z,96657.81
2022-08-19T18:17:37.682Z,96656.16
2022-08-19T18:20:12.167Z,96661.69
2022-08-19T18:22:44.904Z,96671.56
2022-08-19T18:25:19.665Z,96672.69
2022-08-19T18:27:49.594Z,96678.63
2022-08-19T18:30:20.348Z,96667.53
2022-08-19T18:32:52.434Z,96665.19
2022-08-19T18:35:29.783Z,96674.22
2022-08-19T18:38:01.116Z,96676.66
2022-08-19T18:40:57.376Z,96677.00
2022-08-19T18:43:43.477Z,96683.31
2022-08-19T18:46:31.181Z,96680.47
2022-08-19T18:49:05.881Z,96682.88
2022-08-19T18:51:34.871Z,96684.81
2022-08-19T18:54:05.080Z,96687.63
2022-08-19T18:56:34.953Z,96699.78
2022-08-19T18:59:03.518Z,96696.97
2022-08-19T19:01:39.468Z,96698.94
2022-08-19T19:04:11.507Z,96707.66
2022-08-19T19:06:42.927Z,96696.19
2022-08-19T19:09:15.240Z,96697.34
2022-08-19T19:11:48.349Z,96702.47
2022-08-19T19:14:47.641Z,96693.44
2022-08-19T19:17:17.696Z,96702.81
2022-08-19T19:19:46.285Z,96702.81
2022-08-19T19:22:28.840Z,96712.63
2022-08-19T19:25:20.781Z,96715.41
2022-08-19T19:31:26.972Z,96723.28
2022-08-19T19:34:42.486Z,96723.63
2022-08-19T19:37:12.566Z,96716.97
2022-08-19T19:39:46.738Z,96709.03
2022-08-19T19:42:21.449Z,96717.69
2022-08-19T19:44:55.694Z,96712.09
2022-08-19T19:47:28.585Z,96716.78
2022-08-19T19:50:15.752Z,96724.94
2022-08-19T19:52:46.869Z,96730.84
2022-08-19T19:55:19.355Z,96728.34
2022-08-19T19:57:49.425Z,96735.84
2022-08-19T20:00:19.900Z,96735.47
2022-08-19T20:02:50.654Z,96741.06
2022-08-19T20:05:22.088Z,96743.75
2022-08-19T20:08:09.533Z,96752.34
2022-08-19T20:10:38.963Z,96758.25
2022-08-19T20:13:08.997Z,96751.94
2022-08-19T20:15:42.391Z,96758.59
2022-08-19T20:18:13.402Z,96756.59
2022-08-19T20:20:43.442Z,96756.59
2022-08-19T20:23:11.981Z,96762.41
2022-08-19T20:25:40.593Z,96764.03
2022-08-19T20:28:09.025Z,96769.22
2022-08-19T20:30:39.565Z,96765.53
2022-08-19T20:33:14.607Z,96773.81
2022-08-19T20:35:45.262Z,96773.94
2022-08-19T20:38:14.402Z,96771.06
2022-08-19T20:40:42.888Z,96782.50
2022-08-19T20:43:13.564Z,96782.38
2022-08-19T20:45:42.488Z,96789.53
2022-08-19T20:48:12.508Z,96786.41
2022-08-19T20:50:40.993Z,96780.47
2022-08-19T20:53:17.508Z,96782.03
2022-08-19T20:55:49.195Z,96793.13
2022-08-19T20:58:21.322Z,96791.88
2022-08-19T21:00:51.415Z,96795.56
2022-08-19T21:03:23.299Z,96789.38
2022-08-19T21:05:52.582Z,96796.41
2022-08-19T21:08:23.158Z,96801.03
2022-08-19T21:10:53.659Z,96804.09
2022-08-19T21:13:22.912Z,96808.56
2022-08-19T21:15:51.810Z,96813.56
2022-08-19T21:18:22.549Z,96816.03
2022-08-19T21:20:52.210Z,96816.75
2022-08-19T21:23:25.409Z,96813.28
2022-08-19T21:25:55.258Z,96814.50
2022-08-19T21:28:35.076Z,96822.38
2022-08-19T21:31:07.539Z,96824.41
2022-08-19T21:33:35.927Z,96819.16
2022-08-19T21:36:06.409Z,96822.13
2022-08-19T21:38:36.115Z,96824.09
2022-08-19T21:41:07.530Z,96821.25
2022-08-19T21:43:37.331Z,96835.84
2022-08-19T21:46:06.918Z,96835.84
2022-08-19T21:48:35.257Z,96845.66
2022-08-19T21:51:03.523Z,96847.69
2022-08-19T21:53:34.175Z,96859.06
2022-08-19T21:56:06.378Z,96861.53
2022-08-19T21:58:36.440Z,96856.09
2022-08-19T22:01:07.917Z,96864.44
2022-08-19T22:03:39.107Z,96861.22
2022-08-19T22:06:09.363Z,96863.25
2022-08-19T22:08:37.814Z,96864.00
2022-08-19T22:11:07.422Z,96865.78
2022-08-19T22:13:40.132Z,96864.66
2022-08-19T22:16:09.449Z,96865.19
2022-08-19T22:18:37.899Z,96867.16
2022-08-19T22:21:11.229Z,96869.38
2022-08-19T22:23:40.536Z,96866.69
2022-08-19T22:26:10.235Z,96863.88
2022-08-19T22:28:39.519Z,96864.81
2022-08-19T22:31:09.082Z,96862.47
2022-08-19T22:33:38.324Z,96863.34
2022-08-19T22:36:08.526Z,96862.00
2022-08-19T22:38:38.321Z,96866.63
2022-08-19T22:41:08.143Z,96870.31
2022-08-19T22:43:37.977Z,96868.66
2022-08-19T22:46:17.104Z,96863.63
2022-08-19T22:48:47.497Z,96863.72
2022-08-19T22:51:34.442Z,96860.22
2022-08-19T22:54:03.876Z,96854.63
2022-08-19T22:56:32.123Z,96853.91
2022-08-19T22:59:03.163Z,96854.31
2022-08-19T23:01:32.112Z,96845.31
2022-08-19T23:04:03.701Z,96860.03
2022-08-19T23:06:34.494Z,96852.19
2022-08-19T23:09:06.709Z,96855.94
2022-08-19T23:11:41.410Z,96852.81
2022-08-19T23:14:13.155Z,96853.47
2022-08-19T23:16:42.692Z,96849.84
2022-08-19T23:19:11.830Z,96855.13
2022-08-19T23:21:40.736Z,96846.50
2022-08-19T23:24:10.233Z,96842.50
2022-08-19T23:26:59.374Z,96849.56
2022-08-19T23:29:48.466Z,96862.91
2022-08-19T23:32:17.905Z,96853.03
2022-08-19T23:34:46.461Z,96859.78
2022-08-19T23:37:15.183Z,96864.09
2022-08-19T23:39:44.677Z,96859.00
2022-08-19T23:42:14.144Z,96851.56
2022-08-19T23:44:51.949Z,96853.94
2022-08-19T23:47:21.340Z,96853.22
2022-08-19T23:49:50.692Z,96846.56
2022-08-19T23:52:19.219Z,96850.91
2022-08-19T23:54:47.469Z,96844.47
2022-08-19T23:57:16.042Z,96851.44
2022-08-19T23:59:46.270Z,96851.88
